PWSweather.com
Personal Weather Stations
Station Observations

YeovilGB

Lat: 50.949, Lon: -2.627

Elevation: 70

Station Type: Vantage Pro

http://www.yeovil-weather.me.uk/

High Low Average
Temperature 45.6°F7.6°C 36.9°F2.7°C 41.4°F5.2°C
Dew Point 39.8°F4.3°C 33.3°F0.7°C 36.9°F2.7°C
Winds 9.2 mph 14.8 kmh Calm Calm 2.0 mph WNW3.2 kmh WNW
Wind Gusts 20.7 mph33.3 kmh -- 5.0 mph8.0 kmh
Humidity 92% 73% 84%
Pressure 29.95 in1014.2 mb 29.31 in992.6 mb -
Precipitation 0.02 in0.5 mm - -
Hour Temp Dew Point Humidity Winds Wind Gusts Pressure Precip Precip Rate Daily Precip Total
12:00 AM 39.7°F4.3°C 36.7°F2.6°C 89% 1.2 mph SW1.9 kmh SW 4.6 mph7.4 kmh 29.32 in992.9 mb - 0.00 in0.0 mm 0.00 in0.0 mm
12:10 AM 39.6°F4.2°C 36.6°F2.6°C 89% 1.2 mph SW1.9 kmh SW 5.8 mph9.3 kmh 29.33 in993.2 mb - 0.00 in0.0 mm 0.00 in0.0 mm
12:20 AM 39.6°F4.2°C 36.6°F2.6°C 89% 1.2 mph SW1.9 kmh SW 5.8 mph9.3 kmh 29.32 in992.9 mb - 0.00 in0.0 mm 0.00 in0.0 mm
12:30 AM 39.5°F4.2°C 36.5°F2.5°C 89% 2.3 mph SW3.7 kmh SW 3.5 mph5.6 kmh 29.33 in993.2 mb - 0.00 in0.0 mm 0.00 in0.0 mm
12:40 AM 39.4°F4.1°C 36.4°F2.4°C 89% Calm Calm -- 29.33 in993.2 mb - 0.00 in0.0 mm 0.00 in0.0 mm
12:50 AM 39.5°F4.2°C 36.8°F2.7°C 90% Calm Calm -- 29.33 in993.2 mb - 0.00 in0.0 mm 0.00 in0.0 mm
01:00 AM 39.6°F4.2°C 36.9°F2.7°C 90% Calm Calm -- 29.34 in993.6 mb - 0.00 in0.0 mm 0.00 in0.0 mm
01:10 AM 39.8°F4.3°C 37.1°F2.8°C 90% Calm Calm 5.8 mph9.3 kmh 29.34 in993.6 mb - 0.00 in0.0 mm 0.00 in0.0 mm
01:20 AM 40.0°F4.4°C 37.3°F2.9°C 90% Calm Calm -- 29.33 in993.2 mb - 0.00 in0.0 mm 0.00 in0.0 mm
01:30 AM 40.2°F4.6°C 37.5°F3.1°C 90% 1.2 mph SW1.9 kmh SW -- 29.33 in993.2 mb - 0.00 in0.0 mm 0.00 in0.0 mm
01:40 AM 40.0°F4.4°C 37.0°F2.8°C 89% Calm Calm 1.2 mph1.9 kmh 29.33 in993.2 mb - 0.00 in0.0 mm 0.00 in0.0 mm
01:50 AM 40.0°F4.4°C 37.3°F2.9°C 90% 1.2 mph WSW1.9 kmh WSW 4.6 mph7.4 kmh 29.33 in993.2 mb - 0.00 in0.0 mm 0.00 in0.0 mm
02:00 AM 39.9°F4.4°C 37.2°F2.9°C 90% 1.2 mph SW1.9 kmh SW 11.5 mph18.5 kmh 29.33 in993.2 mb - 0.00 in0.0 mm 0.00 in0.0 mm
02:10 AM 39.8°F4.3°C 37.2°F2.9°C 90% Calm Calm -- 29.33 in993.2 mb - 0.00 in0.0 mm 0.00 in0.0 mm
02:20 AM 39.9°F4.4°C 37.2°F2.9°C 90% 3.5 mph SW5.6 kmh SW 4.6 mph7.4 kmh 29.32 in992.9 mb - 0.00 in0.0 mm 0.00 in0.0 mm
02:30 AM 39.8°F4.3°C 37.1°F2.8°C 90% Calm Calm -- 29.32 in992.9 mb - 0.00 in0.0 mm 0.00 in0.0 mm
02:40 AM 39.8°F4.3°C 37.1°F2.8°C 90% Calm Calm -- 29.32 in992.9 mb - 0.00 in0.0 mm 0.00 in0.0 mm
02:50 AM 39.8°F4.3°C 37.4°F3.0°C 91% Calm Calm -- 29.32 in992.9 mb - 0.00 in0.0 mm 0.00 in0.0 mm
03:00 AM 39.7°F4.3°C 37.3°F2.9°C 91% 3.5 mph SW5.6 kmh SW 10.4 mph16.7 kmh 29.32 in992.9 mb - 0.00 in0.0 mm 0.00 in0.0 mm
03:10 AM 40.3°F4.6°C 38.2°F3.4°C 92% 3.5 mph SW5.6 kmh SW 11.5 mph18.5 kmh 29.32 in992.9 mb - 0.00 in0.0 mm 0.00 in0.0 mm
03:20 AM 40.7°F4.8°C 38.6°F3.7°C 92% Calm Calm -- 29.32 in992.9 mb - 0.00 in0.0 mm 0.00 in0.0 mm
03:30 AM 41.0°F5.0°C 38.9°F3.8°C 92% 1.2 mph WSW1.9 kmh WSW 4.6 mph7.4 kmh 29.32 in992.9 mb - 0.00 in0.0 mm 0.00 in0.0 mm
03:40 AM 41.3°F5.2°C 39.1°F3.9°C 92% 2.3 mph WSW3.7 kmh WSW 10.4 mph16.7 kmh 29.32 in992.9 mb - 0.00 in0.0 mm 0.00 in0.0 mm
03:50 AM 41.6°F5.3°C 39.2°F4.0°C 91% 1.2 mph SW1.9 kmh SW 9.2 mph14.8 kmh 29.32 in992.9 mb - 0.00 in0.0 mm 0.00 in0.0 mm
04:00 AM 41.9°F5.5°C 39.4°F4.1°C 91% 2.3 mph SW3.7 kmh SW 12.7 mph20.4 kmh 29.32 in992.9 mb - 0.00 in0.0 mm 0.00 in0.0 mm
04:10 AM 42.2°F5.7°C 39.5°F4.2°C 90% 1.2 mph SW1.9 kmh SW 1.2 mph1.9 kmh 29.32 in992.9 mb - 0.00 in0.0 mm 0.00 in0.0 mm
04:20 AM 42.4°F5.8°C 39.4°F4.1°C 89% 3.5 mph WSW5.6 kmh WSW 9.2 mph14.8 kmh 29.32 in992.9 mb - 0.00 in0.0 mm 0.00 in0.0 mm
04:30 AM 42.7°F5.9°C 39.4°F4.1°C 88% 6.9 mph WSW11.1 kmh WSW 10.4 mph16.7 kmh 29.32 in992.9 mb - 0.00 in0.0 mm 0.00 in0.0 mm
04:40 AM 43.1°F6.2°C 39.7°F4.3°C 88% 4.6 mph SW7.4 kmh SW 12.7 mph20.4 kmh 29.32 in992.9 mb - 0.00 in0.0 mm 0.00 in0.0 mm
04:50 AM 43.3°F6.3°C 39.7°F4.3°C 87% 4.6 mph WSW7.4 kmh WSW 6.9 mph11.1 kmh 29.31 in992.6 mb - 0.00 in0.0 mm 0.00 in0.0 mm
05:00 AM 43.4°F6.3°C 39.8°F4.3°C 87% 9.2 mph WSW14.8 kmh WSW 20.7 mph33.3 kmh 29.32 in992.9 mb - 0.00 in0.0 mm 0.00 in0.0 mm
05:10 AM 43.2°F6.2°C 39.6°F4.2°C 87% 8.1 mph WSW13.0 kmh WSW 12.7 mph20.4 kmh 29.32 in992.9 mb - 0.00 in0.0 mm 0.00 in0.0 mm
05:20 AM 42.5°F5.8°C 39.2°F4.0°C 88% 8.1 mph W13.0 kmh W 16.1 mph25.9 kmh 29.32 in992.9 mb - 0.02 in0.5 mm 0.02 in0.5 mm
05:30 AM 41.8°F5.4°C 38.8°F3.8°C 89% 2.3 mph WSW3.7 kmh WSW 3.5 mph5.6 kmh 29.32 in992.9 mb - 0.02 in0.5 mm 0.02 in0.5 mm
05:40 AM 41.5°F5.3°C 39.1°F3.9°C 91% 2.3 mph WSW3.7 kmh WSW 5.8 mph9.3 kmh 29.32 in992.9 mb - 0.00 in0.0 mm 0.02 in0.5 mm
05:50 AM 41.6°F5.3°C 39.5°F4.2°C 92% 4.6 mph WSW7.4 kmh WSW 11.5 mph18.5 kmh 29.33 in993.2 mb - 0.00 in0.0 mm 0.02 in0.5 mm
06:00 AM 42.0°F5.6°C 39.8°F4.3°C 92% 6.9 mph WNW11.1 kmh WNW 12.7 mph20.4 kmh 29.34 in993.6 mb - 0.00 in0.0 mm 0.02 in0.5 mm
06:10 AM 42.1°F5.6°C 39.7°F4.3°C 91% 4.6 mph WNW7.4 kmh WNW 11.5 mph18.5 kmh 29.34 in993.6 mb - 0.00 in0.0 mm 0.02 in0.5 mm
06:20 AM 42.2°F5.7°C 39.8°F4.3°C 91% 4.6 mph NW7.4 kmh NW 11.5 mph18.5 kmh 29.35 in993.9 mb - 0.00 in0.0 mm 0.02 in0.5 mm
06:30 AM 42.2°F5.7°C 39.8°F4.3°C 91% 5.8 mph NW9.3 kmh NW 8.1 mph13.0 kmh 29.36 in994.2 mb - 0.00 in0.0 mm 0.02 in0.5 mm
06:40 AM 42.1°F5.6°C 39.4°F4.1°C 90% 3.5 mph NW5.6 kmh NW 11.5 mph18.5 kmh 29.37 in994.6 mb - 0.00 in0.0 mm 0.02 in0.5 mm
06:50 AM 41.9°F5.5°C 38.9°F3.8°C 89% 6.9 mph NW11.1 kmh NW 9.2 mph14.8 kmh 29.38 in994.9 mb - 0.00 in0.0 mm 0.02 in0.5 mm
07:00 AM 41.8°F5.4°C 38.8°F3.8°C 89% 8.1 mph NW13.0 kmh NW 11.5 mph18.5 kmh 29.40 in995.6 mb - 0.00 in0.0 mm 0.02 in0.5 mm
07:10 AM 41.3°F5.2°C 37.4°F3.0°C 86% 6.9 mph NW11.1 kmh NW 13.8 mph22.2 kmh 29.41 in995.9 mb - 0.00 in0.0 mm 0.02 in0.5 mm
07:20 AM 40.8°F4.9°C 37.0°F2.8°C 86% 8.1 mph NW13.0 kmh NW 12.7 mph20.4 kmh 29.42 in996.3 mb - 0.00 in0.0 mm 0.02 in0.5 mm
07:30 AM 40.4°F4.7°C 36.2°F2.3°C 85% 9.2 mph NNW14.8 kmh NNW 11.5 mph18.5 kmh 29.43 in996.6 mb - 0.00 in0.0 mm 0.02 in0.5 mm
07:40 AM 39.8°F4.3°C 35.7°F2.1°C 85% 5.8 mph NW9.3 kmh NW 11.5 mph18.5 kmh 29.44 in997.0 mb - 0.00 in0.0 mm 0.02 in0.5 mm
07:50 AM 39.7°F4.3°C 36.1°F2.3°C 87% 1.2 mph NW1.9 kmh NW 3.5 mph5.6 kmh 29.45 in997.3 mb - 0.00 in0.0 mm 0.02 in0.5 mm
08:00 AM 39.6°F4.2°C 36.0°F2.2°C 87% 4.6 mph NW7.4 kmh NW 11.5 mph18.5 kmh 29.46 in997.6 mb - 0.00 in0.0 mm 0.02 in0.5 mm
08:10 AM 39.4°F4.1°C 35.9°F2.2°C 87% 2.3 mph NNW3.7 kmh NNW 6.9 mph11.1 kmh 29.47 in998.0 mb - 0.00 in0.0 mm 0.02 in0.5 mm
08:20 AM 39.1°F3.9°C 35.6°F2.0°C 87% 1.2 mph NW1.9 kmh NW 4.6 mph7.4 kmh 29.48 in998.3 mb - 0.00 in0.0 mm 0.02 in0.5 mm
08:30 AM 38.8°F3.8°C 35.5°F1.9°C 88% 3.5 mph NW5.6 kmh NW 6.9 mph11.1 kmh 29.49 in998.6 mb - 0.00 in0.0 mm 0.02 in0.5 mm
08:40 AM 38.5°F3.6°C 35.2°F1.8°C 88% 2.3 mph NW3.7 kmh NW 8.1 mph13.0 kmh 29.50 in999.0 mb - 0.00 in0.0 mm 0.02 in0.5 mm
08:50 AM 38.2°F3.4°C 35.0°F1.7°C 88% 3.5 mph NW5.6 kmh NW 5.8 mph9.3 kmh 29.51 in999.3 mb - 0.00 in0.0 mm 0.02 in0.5 mm
09:00 AM 38.1°F3.4°C 34.9°F1.6°C 88% 1.2 mph NW1.9 kmh NW 6.9 mph11.1 kmh 29.52 in999.7 mb - 0.00 in0.0 mm 0.02 in0.5 mm
09:10 AM 38.0°F3.3°C 34.8°F1.6°C 88% Calm Calm -- 29.52 in999.7 mb - 0.00 in0.0 mm 0.02 in0.5 mm
09:20 AM 38.0°F3.3°C 35.0°F1.7°C 89% 2.3 mph NW3.7 kmh NW 6.9 mph11.1 kmh 29.53 in1000.0 mb - 0.00 in0.0 mm 0.02 in0.5 mm
09:30 AM 38.3°F3.5°C 35.6°F2.0°C 90% 2.3 mph W3.7 kmh W 5.8 mph9.3 kmh 29.54 in1000.3 mb - 0.00 in0.0 mm 0.02 in0.5 mm
09:40 AM 38.6°F3.7°C 35.6°F2.0°C 89% Calm Calm -- 29.55 in1000.7 mb - 0.00 in0.0 mm 0.02 in0.5 mm
09:50 AM 38.8°F3.8°C 35.9°F2.2°C 89% Calm Calm 1.2 mph1.9 kmh 29.56 in1001.0 mb - 0.00 in0.0 mm 0.02 in0.5 mm
10:00 AM 39.3°F4.1°C 36.3°F2.4°C 89% 1.2 mph NW1.9 kmh NW 6.9 mph11.1 kmh 29.57 in1001.4 mb - 0.00 in0.0 mm 0.02 in0.5 mm
10:10 AM 40.2°F4.6°C 36.6°F2.6°C 87% 4.6 mph NW7.4 kmh NW 6.9 mph11.1 kmh 29.57 in1001.4 mb - 0.00 in0.0 mm 0.02 in0.5 mm
10:20 AM 41.0°F5.0°C 37.2°F2.9°C 86% 2.3 mph NW3.7 kmh NW 4.6 mph7.4 kmh 29.57 in1001.4 mb - 0.00 in0.0 mm 0.02 in0.5 mm
10:30 AM 41.7°F5.4°C 37.5°F3.1°C 85% 1.2 mph WNW1.9 kmh WNW 6.9 mph11.1 kmh 29.58 in1001.7 mb - 0.00 in0.0 mm 0.02 in0.5 mm
10:40 AM 42.3°F5.7°C 37.5°F3.1°C 83% 1.2 mph NW1.9 kmh NW 5.8 mph9.3 kmh 29.59 in1002.0 mb - 0.00 in0.0 mm 0.02 in0.5 mm
10:50 AM 42.6°F5.9°C 37.8°F3.2°C 83% Calm Calm 1.2 mph1.9 kmh 29.59 in1002.0 mb - 0.00 in0.0 mm 0.02 in0.5 mm
11:00 AM 43.0°F6.1°C 37.6°F3.1°C 81% Calm Calm 4.6 mph7.4 kmh 29.59 in1002.0 mb - 0.00 in0.0 mm 0.02 in0.5 mm
11:10 AM 43.5°F6.4°C 38.0°F3.3°C 81% Calm Calm 3.5 mph5.6 kmh 29.60 in1002.4 mb - 0.00 in0.0 mm 0.02 in0.5 mm
11:20 AM 43.8°F6.6°C 37.7°F3.2°C 79% 3.5 mph WNW5.6 kmh WNW 8.1 mph13.0 kmh 29.60 in1002.4 mb - 0.00 in0.0 mm 0.02 in0.5 mm
11:30 AM 44.3°F6.8°C 38.2°F3.4°C 79% Calm Calm 5.8 mph9.3 kmh 29.60 in1002.4 mb - 0.00 in0.0 mm 0.02 in0.5 mm
11:40 AM 44.6°F7.0°C 38.2°F3.4°C 78% 2.3 mph NW3.7 kmh NW 8.1 mph13.0 kmh 29.61 in1002.7 mb - 0.00 in0.0 mm 0.02 in0.5 mm
11:50 AM 44.8°F7.1°C 38.0°F3.3°C 77% 1.2 mph NW1.9 kmh NW 6.9 mph11.1 kmh 29.61 in1002.7 mb - 0.00 in0.0 mm 0.02 in0.5 mm
12:00 PM 44.9°F7.2°C 38.1°F3.4°C 77% 1.2 mph NW1.9 kmh NW 1.2 mph1.9 kmh 29.61 in1002.7 mb - 0.00 in0.0 mm 0.02 in0.5 mm
12:10 PM 45.3°F7.4°C 38.5°F3.6°C 77% Calm Calm 3.5 mph5.6 kmh 29.61 in1002.7 mb - 0.00 in0.0 mm 0.02 in0.5 mm
12:20 PM 45.2°F7.3°C 37.4°F3.0°C 74% 2.3 mph WNW3.7 kmh WNW 4.6 mph7.4 kmh 29.61 in1002.7 mb - 0.00 in0.0 mm 0.02 in0.5 mm
12:30 PM 45.3°F7.4°C 37.5°F3.1°C 74% 3.5 mph NNW5.6 kmh NNW 4.6 mph7.4 kmh 29.62 in1003.0 mb - 0.00 in0.0 mm 0.02 in0.5 mm
12:40 PM 45.5°F7.5°C 37.7°F3.2°C 74% 2.3 mph NW3.7 kmh NW 6.9 mph11.1 kmh 29.63 in1003.4 mb - 0.00 in0.0 mm 0.02 in0.5 mm
12:50 PM 45.6°F7.6°C 37.5°F3.1°C 73% 1.2 mph NW1.9 kmh NW 10.4 mph16.7 kmh 29.63 in1003.4 mb - 0.00 in0.0 mm 0.02 in0.5 mm
01:00 PM 45.5°F7.5°C 37.4°F3.0°C 73% 3.5 mph NW5.6 kmh NW 6.9 mph11.1 kmh 29.63 in1003.4 mb - 0.00 in0.0 mm 0.02 in0.5 mm
01:10 PM 45.0°F7.2°C 37.2°F2.9°C 74% 2.3 mph NW3.7 kmh NW 4.6 mph7.4 kmh 29.64 in1003.7 mb - 0.00 in0.0 mm 0.02 in0.5 mm
01:20 PM 44.6°F7.0°C 37.2°F2.9°C 75% 2.3 mph NW3.7 kmh NW 4.6 mph7.4 kmh 29.64 in1003.7 mb - 0.00 in0.0 mm 0.02 in0.5 mm
01:30 PM 44.8°F7.1°C 37.7°F3.2°C 76% 1.2 mph NW1.9 kmh NW 6.9 mph11.1 kmh 29.65 in1004.1 mb - 0.00 in0.0 mm 0.02 in0.5 mm
01:40 PM 45.1°F7.3°C 37.6°F3.1°C 75% 3.5 mph NW5.6 kmh NW 11.5 mph18.5 kmh 29.64 in1003.7 mb - 0.00 in0.0 mm 0.02 in0.5 mm
01:50 PM 45.1°F7.3°C 37.3°F2.9°C 74% 4.6 mph NW7.4 kmh NW 5.8 mph9.3 kmh 29.65 in1004.1 mb - 0.00 in0.0 mm 0.02 in0.5 mm
02:00 PM 45.1°F7.3°C 37.6°F3.1°C 75% 4.6 mph NW7.4 kmh NW 9.2 mph14.8 kmh 29.66 in1004.4 mb - 0.00 in0.0 mm 0.02 in0.5 mm
02:10 PM 44.9°F7.2°C 37.5°F3.1°C 75% 3.5 mph NNW5.6 kmh NNW 3.5 mph5.6 kmh 29.66 in1004.4 mb - 0.00 in0.0 mm 0.02 in0.5 mm
02:20 PM 44.6°F7.0°C 37.2°F2.9°C 75% Calm Calm 2.3 mph3.7 kmh 29.67 in1004.7 mb - 0.00 in0.0 mm 0.02 in0.5 mm
02:30 PM 44.6°F7.0°C 37.8°F3.2°C 77% 3.5 mph NW5.6 kmh NW 8.1 mph13.0 kmh 29.67 in1004.7 mb - 0.00 in0.0 mm 0.02 in0.5 mm
02:40 PM 44.4°F6.9°C 38.0°F3.3°C 78% 3.5 mph NW5.6 kmh NW 9.2 mph14.8 kmh 29.68 in1005.1 mb - 0.00 in0.0 mm 0.02 in0.5 mm
02:50 PM 44.2°F6.8°C 37.4°F3.0°C 77% 3.5 mph NW5.6 kmh NW 6.9 mph11.1 kmh 29.68 in1005.1 mb - 0.00 in0.0 mm 0.02 in0.5 mm
03:00 PM 43.8°F6.6°C 37.4°F3.0°C 78% 4.6 mph NW7.4 kmh NW 10.4 mph16.7 kmh 29.69 in1005.4 mb - 0.00 in0.0 mm 0.02 in0.5 mm
03:10 PM 43.5°F6.4°C 36.8°F2.7°C 77% 2.3 mph NNW3.7 kmh NNW 6.9 mph11.1 kmh 29.69 in1005.4 mb - 0.00 in0.0 mm 0.02 in0.5 mm
03:20 PM 43.2°F6.2°C 36.8°F2.7°C 78% 1.2 mph NNW1.9 kmh NNW 3.5 mph5.6 kmh 29.70 in1005.8 mb - 0.00 in0.0 mm 0.02 in0.5 mm
03:30 PM 42.9°F6.1°C 36.5°F2.5°C 78% Calm Calm 2.3 mph3.7 kmh 29.71 in1006.1 mb - 0.00 in0.0 mm 0.02 in0.5 mm
03:40 PM 42.7°F5.9°C 36.6°F2.6°C 79% Calm Calm 1.2 mph1.9 kmh 29.72 in1006.4 mb - 0.00 in0.0 mm 0.02 in0.5 mm
03:50 PM 42.5°F5.8°C 36.8°F2.7°C 80% Calm Calm -- 29.73 in1006.8 mb - 0.00 in0.0 mm 0.02 in0.5 mm
04:00 PM 42.4°F5.8°C 36.7°F2.6°C 80% Calm Calm 2.3 mph3.7 kmh 29.73 in1006.8 mb - 0.00 in0.0 mm 0.02 in0.5 mm
04:10 PM 42.2°F5.7°C 36.5°F2.5°C 80% Calm Calm 10.4 mph16.7 kmh 29.73 in1006.8 mb - 0.00 in0.0 mm 0.02 in0.5 mm
04:20 PM 41.7°F5.4°C 36.0°F2.2°C 80% 1.2 mph NW1.9 kmh NW 4.6 mph7.4 kmh 29.74 in1007.1 mb - 0.00 in0.0 mm 0.02 in0.5 mm
04:30 PM 41.5°F5.3°C 36.1°F2.3°C 81% 3.5 mph NW5.6 kmh NW 6.9 mph11.1 kmh 29.75 in1007.5 mb - 0.00 in0.0 mm 0.02 in0.5 mm
04:40 PM 41.4°F5.2°C 36.0°F2.2°C 81% Calm Calm 2.3 mph3.7 kmh 29.75 in1007.5 mb - 0.00 in0.0 mm 0.02 in0.5 mm
04:50 PM 41.3°F5.2°C 36.2°F2.3°C 82% 2.3 mph NNW3.7 kmh NNW 3.5 mph5.6 kmh 29.76 in1007.8 mb - 0.00 in0.0 mm 0.02 in0.5 mm
05:00 PM 41.4°F5.2°C 36.3°F2.4°C 82% Calm Calm 1.2 mph1.9 kmh 29.77 in1008.1 mb - 0.00 in0.0 mm 0.02 in0.5 mm
05:10 PM 41.4°F5.2°C 36.3°F2.4°C 82% Calm Calm 3.5 mph5.6 kmh 29.77 in1008.1 mb - 0.00 in0.0 mm 0.02 in0.5 mm
05:20 PM 41.4°F5.2°C 36.3°F2.4°C 82% Calm Calm 2.3 mph3.7 kmh 29.77 in1008.1 mb - 0.00 in0.0 mm 0.02 in0.5 mm
05:30 PM 41.5°F5.3°C 36.4°F2.4°C 82% 1.2 mph NNW1.9 kmh NNW 3.5 mph5.6 kmh 29.78 in1008.5 mb - 0.00 in0.0 mm 0.02 in0.5 mm
05:40 PM 41.6°F5.3°C 36.5°F2.5°C 82% 3.5 mph NW5.6 kmh NW 6.9 mph11.1 kmh 29.78 in1008.5 mb - 0.00 in0.0 mm 0.02 in0.5 mm
05:50 PM 41.9°F5.5°C 36.5°F2.5°C 81% 5.8 mph NW9.3 kmh NW 10.4 mph16.7 kmh 29.79 in1008.8 mb - 0.00 in0.0 mm 0.02 in0.5 mm
06:00 PM 42.0°F5.6°C 36.6°F2.6°C 81% 2.3 mph NW3.7 kmh NW 5.8 mph9.3 kmh 29.80 in1009.1 mb - 0.00 in0.0 mm 0.02 in0.5 mm
06:10 PM 42.0°F5.6°C 36.6°F2.6°C 81% 3.5 mph NW5.6 kmh NW 8.1 mph13.0 kmh 29.80 in1009.1 mb - 0.00 in0.0 mm 0.02 in0.5 mm
06:20 PM 42.1°F5.6°C 37.0°F2.8°C 82% 3.5 mph NNW5.6 kmh NNW 4.6 mph7.4 kmh 29.80 in1009.1 mb - 0.00 in0.0 mm 0.02 in0.5 mm
06:30 PM 42.0°F5.6°C 36.9°F2.7°C 82% 4.6 mph NW7.4 kmh NW 8.1 mph13.0 kmh 29.81 in1009.5 mb - 0.00 in0.0 mm 0.02 in0.5 mm
06:40 PM 42.0°F5.6°C 36.9°F2.7°C 82% 4.6 mph NW7.4 kmh NW 5.8 mph9.3 kmh 29.81 in1009.5 mb - 0.00 in0.0 mm 0.02 in0.5 mm
06:50 PM 42.0°F5.6°C 36.9°F2.7°C 82% 3.5 mph NW5.6 kmh NW 6.9 mph11.1 kmh 29.82 in1009.8 mb - 0.00 in0.0 mm 0.02 in0.5 mm
07:00 PM 42.0°F5.6°C 36.9°F2.7°C 82% 4.6 mph NW7.4 kmh NW 11.5 mph18.5 kmh 29.83 in1010.2 mb - 0.00 in0.0 mm 0.02 in0.5 mm
07:10 PM 42.0°F5.6°C 36.6°F2.6°C 81% 3.5 mph NW5.6 kmh NW 1.2 mph1.9 kmh 29.84 in1010.5 mb - 0.00 in0.0 mm 0.02 in0.5 mm
07:20 PM 42.1°F5.6°C 36.7°F2.6°C 81% Calm Calm 3.5 mph5.6 kmh 29.84 in1010.5 mb - 0.00 in0.0 mm 0.02 in0.5 mm
07:30 PM 42.1°F5.6°C 36.7°F2.6°C 81% 2.3 mph NNW3.7 kmh NNW 2.3 mph3.7 kmh 29.85 in1010.8 mb - 0.00 in0.0 mm 0.02 in0.5 mm
07:40 PM 42.1°F5.6°C 36.4°F2.4°C 80% 2.3 mph NW3.7 kmh NW 3.5 mph5.6 kmh 29.86 in1011.2 mb - 0.00 in0.0 mm 0.02 in0.5 mm
07:50 PM 42.1°F5.6°C 36.4°F2.4°C 80% Calm Calm 4.6 mph7.4 kmh 29.87 in1011.5 mb - 0.00 in0.0 mm 0.02 in0.5 mm
08:00 PM 42.1°F5.6°C 36.3°F2.4°C 80% 1.2 mph NW1.9 kmh NW 1.2 mph1.9 kmh 29.87 in1011.5 mb - 0.00 in0.0 mm 0.02 in0.5 mm
08:10 PM 41.9°F5.5°C 36.2°F2.3°C 80% 1.2 mph NNW1.9 kmh NNW 1.2 mph1.9 kmh 29.87 in1011.5 mb - 0.00 in0.0 mm 0.02 in0.5 mm
08:20 PM 41.8°F5.4°C 36.4°F2.4°C 81% Calm Calm -- 29.87 in1011.5 mb - 0.00 in0.0 mm 0.02 in0.5 mm
08:30 PM 41.4°F5.2°C 36.0°F2.2°C 81% 4.6 mph NW7.4 kmh NW 6.9 mph11.1 kmh 29.87 in1011.5 mb - 0.00 in0.0 mm 0.02 in0.5 mm
08:40 PM 40.9°F4.9°C 35.6°F2.0°C 81% 2.3 mph NW3.7 kmh NW 3.5 mph5.6 kmh 29.87 in1011.5 mb - 0.00 in0.0 mm 0.02 in0.5 mm
08:50 PM 40.9°F4.9°C 35.5°F1.9°C 81% 1.2 mph NW1.9 kmh NW 5.8 mph9.3 kmh 29.88 in1011.9 mb - 0.00 in0.0 mm 0.02 in0.5 mm
09:00 PM 40.9°F4.9°C 35.8°F2.1°C 82% Calm Calm 1.2 mph1.9 kmh 29.89 in1012.2 mb - 0.00 in0.0 mm 0.02 in0.5 mm
09:10 PM 40.9°F4.9°C 36.1°F2.3°C 83% Calm Calm 1.2 mph1.9 kmh 29.89 in1012.2 mb - 0.00 in0.0 mm 0.02 in0.5 mm
09:20 PM 40.8°F4.9°C 36.0°F2.2°C 83% Calm Calm 3.5 mph5.6 kmh 29.90 in1012.5 mb - 0.00 in0.0 mm 0.02 in0.5 mm
09:30 PM 40.7°F4.8°C 35.6°F2.0°C 82% 1.2 mph NW1.9 kmh NW 3.5 mph5.6 kmh 29.90 in1012.5 mb - 0.00 in0.0 mm 0.02 in0.5 mm
09:40 PM 40.6°F4.8°C 35.8°F2.1°C 83% 1.2 mph NW1.9 kmh NW 3.5 mph5.6 kmh 29.90 in1012.5 mb - 0.00 in0.0 mm 0.02 in0.5 mm
09:50 PM 40.3°F4.6°C 35.8°F2.1°C 84% Calm Calm 1.2 mph1.9 kmh 29.91 in1012.9 mb - 0.00 in0.0 mm 0.02 in0.5 mm
10:00 PM 39.9°F4.4°C 35.4°F1.9°C 84% Calm Calm 1.2 mph1.9 kmh 29.91 in1012.9 mb - 0.00 in0.0 mm 0.02 in0.5 mm
10:10 PM 39.5°F4.2°C 35.3°F1.8°C 85% Calm Calm -- 29.91 in1012.9 mb - 0.00 in0.0 mm 0.02 in0.5 mm
10:20 PM 39.0°F3.9°C 34.8°F1.6°C 85% Calm Calm -- 29.92 in1013.2 mb - 0.00 in0.0 mm 0.02 in0.5 mm
10:30 PM 38.5°F3.6°C 34.4°F1.3°C 85% Calm Calm -- 29.92 in1013.2 mb - 0.00 in0.0 mm 0.02 in0.5 mm
10:40 PM 38.2°F3.4°C 34.4°F1.3°C 86% Calm Calm -- 29.92 in1013.2 mb - 0.00 in0.0 mm 0.02 in0.5 mm
10:50 PM 37.8°F3.2°C 34.0°F1.1°C 86% Calm Calm -- 29.93 in1013.5 mb - 0.00 in0.0 mm 0.02 in0.5 mm
11:00 PM 37.4°F3.0°C 33.6°F0.9°C 86% Calm Calm -- 29.93 in1013.5 mb - 0.00 in0.0 mm 0.02 in0.5 mm
11:10 PM 37.0°F2.8°C 33.5°F0.8°C 87% Calm Calm 3.5 mph5.6 kmh 29.94 in1013.9 mb - 0.00 in0.0 mm 0.02 in0.5 mm
11:20 PM 36.9°F2.7°C 33.4°F0.8°C 87% 1.2 mph NW1.9 kmh NW 3.5 mph5.6 kmh 29.94 in1013.9 mb - 0.00 in0.0 mm 0.02 in0.5 mm
11:30 PM 37.0°F2.8°C 33.5°F0.8°C 87% 3.5 mph WNW5.6 kmh WNW 5.8 mph9.3 kmh 29.94 in1013.9 mb - 0.00 in0.0 mm 0.02 in0.5 mm
11:40 PM 37.1°F2.8°C 33.3°F0.7°C 86% 1.2 mph W1.9 kmh W 2.3 mph3.7 kmh 29.95 in1014.2 mb - 0.00 in0.0 mm 0.02 in0.5 mm
11:50 PM 37.1°F2.8°C 33.3°F0.7°C 86% 1.2 mph NW1.9 kmh NW -- 29.95 in1014.2 mb - 0.00 in0.0 mm 0.02 in0.5 mm